Terminal Aerodrome Forecast
Issued by NWS

Current Version | Previous Version | Text Only | Print | Product List | Glossary On
Versions: 1 2 3 4 5 6 7 8 9 10 11 12 13
000
FTUS42 KMLB 242325
TAFTIX
TAF
KTIX 242325Z 2500/2524 05006KT P6SM FEW250
     FM250600 00000KT P6SM FEW040 SCT250
     FM251400 17010KT P6SM SCT035
     FM251800 20011G17KT P6SM BKN035
     FM252100 21010KT P6SM VCSH BKN035
      AMD NOT SKED 2503/2512=

USA.gov is the U.S. government's official web portal to all federal, state and local government web resources and services.